sensor_id;sensor_type;location;lat;lon;timestamp;temperature;humidity
39695;DHT22;25367;-35.352;149.036;2023-04-02T00:00:16;20.00;54.00
39695;DHT22;25367;-35.352;149.036;2023-04-02T00:02:58;20.00;53.70
39695;DHT22;25367;-35.352;149.036;2023-04-02T00:05:39;20.10;54.00
39695;DHT22;25367;-35.352;149.036;2023-04-02T00:08:22;20.00;54.00
39695;DHT22;25367;-35.352;149.036;2023-04-02T00:10:54;20.10;53.90
39695;DHT22;25367;-35.352;149.036;2023-04-02T00:13:33;20.10;54.10
39695;DHT22;25367;-35.352;149.036;2023-04-02T00:16:10;20.10;53.90
39695;DHT22;25367;-35.352;149.036;2023-04-02T00:18:43;20.10;54.00
39695;DHT22;25367;-35.352;149.036;2023-04-02T00:21:18;20.10;54.10
39695;DHT22;25367;-35.352;149.036;2023-04-02T00:23:49;20.10;54.00
39695;DHT22;25367;-35.352;149.036;2023-04-02T00:26:23;20.10;54.10
39695;DHT22;25367;-35.352;149.036;2023-04-02T00:28:53;20.10;54.00
39695;DHT22;25367;-35.352;149.036;2023-04-02T00:31:25;20.20;54.70
39695;DHT22;25367;-35.352;149.036;2023-04-02T00:33:55;20.20;54.00
39695;DHT22;25367;-35.352;149.036;2023-04-02T00:36:26;20.10;54.00
39695;DHT22;25367;-35.352;149.036;2023-04-02T00:38:58;20.20;54.00
39695;DHT22;25367;-35.352;149.036;2023-04-02T00:41:30;20.20;54.00
39695;DHT22;25367;-35.352;149.036;2023-04-02T00:44:00;20.20;54.00
39695;DHT22;25367;-35.352;149.036;2023-04-02T00:46:38;20.20;54.60
39695;DHT22;25367;-35.352;149.036;2023-04-02T00:49:13;20.20;54.00
39695;DHT22;25367;-35.352;149.036;2023-04-02T00:51:48;20.20;54.10
39695;DHT22;25367;-35.352;149.036;2023-04-02T00:54:20;20.20;54.20
39695;DHT22;25367;-35.352;149.036;2023-04-02T00:56:53;20.20;54.20
39695;DHT22;25367;-35.352;149.036;2023-04-02T00:59:27;20.20;54.20
39695;DHT22;25367;-35.352;149.036;2023-04-02T01:02:22;20.20;54.20
39695;DHT22;25367;-35.352;149.036;2023-04-02T01:04:53;20.20;53.90
39695;DHT22;25367;-35.352;149.036;2023-04-02T01:07:46;20.20;54.30
39695;DHT22;25367;-35.352;149.036;2023-04-02T01:10:23;20.30;54.20
39695;DHT22;25367;-35.352;149.036;2023-04-02T01:13:03;20.20;53.80
39695;DHT22;25367;-35.352;149.036;2023-04-02T01:15:39;20.20;54.50
39695;DHT22;25367;-35.352;149.036;2023-04-02T01:18:29;20.20;54.50
39695;DHT22;25367;-35.352;149.036;2023-04-02T01:21:15;20.20;54.20
39695;DHT22;25367;-35.352;149.036;2023-04-02T01:23:52;20.20;54.30
39695;DHT22;25367;-35.352;149.036;2023-04-02T01:29:18;20.30;54.30
39695;DHT22;25367;-35.352;149.036;2023-04-02T01:31:49;20.30;54.30
39695;DHT22;25367;-35.352;149.036;2023-04-02T01:34:20;20.30;54.30
39695;DHT22;25367;-35.352;149.036;2023-04-02T01:37:04;20.30;54.40
39695;DHT22;25367;-35.352;149.036;2023-04-02T01:39:43;20.30;54.20
39695;DHT22;25367;-35.352;149.036;2023-04-02T01:42:22;20.40;54.40
39695;DHT22;25367;-35.352;149.036;2023-04-02T01:45:00;20.40;54.70
39695;DHT22;25367;-35.352;149.036;2023-04-02T01:47:30;20.50;54.60
39695;DHT22;25367;-35.352;149.036;2023-04-02T01:50:03;20.50;54.60
39695;DHT22;25367;-35.352;149.036;2023-04-02T01:52:39;20.40;54.50
39695;DHT22;25367;-35.352;149.036;2023-04-02T01:55:10;20.50;54.40
39695;DHT22;25367;-35.352;149.036;2023-04-02T01:57:42;20.50;54.60
39695;DHT22;25367;-35.352;149.036;2023-04-02T02:00:18;20.50;54.60
39695;DHT22;25367;-35.352;149.036;2023-04-02T02:02:52;20.50;54.50
39695;DHT22;25367;-35.352;149.036;2023-04-02T02:05:22;20.50;54.60
39695;DHT22;25367;-35.352;149.036;2023-04-02T02:07:55;20.50;54.60
39695;DHT22;25367;-35.352;149.036;2023-04-02T02:10:27;20.60;54.70
39695;DHT22;25367;-35.352;149.036;2023-04-02T02:12:58;20.60;54.70
39695;DHT22;25367;-35.352;149.036;2023-04-02T02:15:32;20.60;54.70
39695;DHT22;25367;-35.352;149.036;2023-04-02T02:18:04;20.60;54.60
39695;DHT22;25367;-35.352;149.036;2023-04-02T02:20:34;20.60;54.60
39695;DHT22;25367;-35.352;149.036;2023-04-02T02:23:04;20.60;54.50
39695;DHT22;25367;-35.352;149.036;2023-04-02T02:25:34;20.60;54.40
39695;DHT22;25367;-35.352;149.036;2023-04-02T02:28:07;20.70;54.50
39695;DHT22;25367;-35.352;149.036;2023-04-02T02:30:44;20.60;54.30
39695;DHT22;25367;-35.352;149.036;2023-04-02T02:33:18;20.70;54.40
39695;DHT22;25367;-35.352;149.036;2023-04-02T02:35:53;20.70;54.40
39695;DHT22;25367;-35.352;149.036;2023-04-02T02:38:37;20.70;54.30
39695;DHT22;25367;-35.352;149.036;2023-04-02T02:41:24;20.70;54.30
39695;DHT22;25367;-35.352;149.036;2023-04-02T02:44:03;20.70;54.40
39695;DHT22;25367;-35.352;149.036;2023-04-02T02:46:40;20.70;54.30
39695;DHT22;25367;-35.352;149.036;2023-04-02T02:49:15;20.70;54.30
39695;DHT22;25367;-35.352;149.036;2023-04-02T02:51:49;20.70;54.30
39695;DHT22;25367;-35.352;149.036;2023-04-02T02:54:28;20.70;54.40
39695;DHT22;25367;-35.352;149.036;2023-04-02T02:57:00;20.80;54.40
39695;DHT22;25367;-35.352;149.036;2023-04-02T02:59:31;20.80;54.90
39695;DHT22;25367;-35.352;149.036;2023-04-02T03:02:05;20.80;54.40
39695;DHT22;25367;-35.352;149.036;2023-04-02T03:04:35;20.80;54.30
39695;DHT22;25367;-35.352;149.036;2023-04-02T03:07:09;20.80;54.30
39695;DHT22;25367;-35.352;149.036;2023-04-02T03:09:44;20.80;54.40
39695;DHT22;25367;-35.352;149.036;2023-04-02T03:12:40;20.80;54.30
39695;DHT22;25367;-35.352;149.036;2023-04-02T03:15:19;20.90;54.20
39695;DHT22;25367;-35.352;149.036;2023-04-02T03:17:57;20.80;54.30
39695;DHT22;25367;-35.352;149.036;2023-04-02T03:20:33;20.90;54.30
39695;DHT22;25367;-35.352;149.036;2023-04-02T03:23:10;20.90;54.30
39695;DHT22;25367;-35.352;149.036;2023-04-02T03:25:44;20.90;54.40
39695;DHT22;25367;-35.352;149.036;2023-04-02T03:28:20;20.90;54.40
39695;DHT22;25367;-35.352;149.036;2023-04-02T03:30:54;20.90;54.30
39695;DHT22;25367;-35.352;149.036;2023-04-02T03:33:30;20.90;54.30
39695;DHT22;25367;-35.352;149.036;2023-04-02T03:36:06;20.90;54.20
39695;DHT22;25367;-35.352;149.036;2023-04-02T03:38:42;20.90;54.20
39695;DHT22;25367;-35.352;149.036;2023-04-02T03:41:17;21.00;54.20
39695;DHT22;25367;-35.352;149.036;2023-04-02T03:43:46;21.00;54.20
39695;DHT22;25367;-35.352;149.036;2023-04-02T03:46:25;20.90;53.90
39695;DHT22;25367;-35.352;149.036;2023-04-02T03:49:02;20.90;54.30
39695;DHT22;25367;-35.352;149.036;2023-04-02T03:51:36;21.00;54.30
39695;DHT22;25367;-35.352;149.036;2023-04-02T03:54:11;21.00;54.30
39695;DHT22;25367;-35.352;149.036;2023-04-02T03:56:44;21.00;54.20
39695;DHT22;25367;-35.352;149.036;2023-04-02T03:59:33;21.00;54.20
39695;DHT22;25367;-35.352;149.036;2023-04-02T04:02:14;21.00;54.10
39695;DHT22;25367;-35.352;149.036;2023-04-02T04:04:51;21.00;54.10
39695;DHT22;25367;-35.352;149.036;2023-04-02T04:07:28;21.00;54.20
39695;DHT22;25367;-35.352;149.036;2023-04-02T04:10:00;21.10;54.20
39695;DHT22;25367;-35.352;149.036;2023-04-02T04:12:31;21.10;54.20
39695;DHT22;25367;-35.352;149.036;2023-04-02T04:15:08;21.10;54.20
39695;DHT22;25367;-35.352;149.036;2023-04-02T04:17:48;21.10;54.20
39695;DHT22;25367;-35.352;149.036;2023-04-02T04:20:30;21.10;54.10
39695;DHT22;25367;-35.352;149.036;2023-04-02T04:23:15;21.10;54.10
39695;DHT22;25367;-35.352;149.036;2023-04-02T04:25:47;21.10;54.00
39695;DHT22;25367;-35.352;149.036;2023-04-02T04:28:28;21.10;54.10
39695;DHT22;25367;-35.352;149.036;2023-04-02T04:31:03;21.20;54.10
39695;DHT22;25367;-35.352;149.036;2023-04-02T04:33:42;21.20;54.20
39695;DHT22;25367;-35.352;149.036;2023-04-02T04:36:23;21.20;54.20
39695;DHT22;25367;-35.352;149.036;2023-04-02T04:38:54;21.20;54.20
39695;DHT22;25367;-35.352;149.036;2023-04-02T04:41:28;21.20;54.20
39695;DHT22;25367;-35.352;149.036;2023-04-02T04:44:05;21.20;54.20
39695;DHT22;25367;-35.352;149.036;2023-04-02T04:46:39;21.20;54.20
39695;DHT22;25367;-35.352;149.036;2023-04-02T04:49:13;21.20;54.20
39695;DHT22;25367;-35.352;149.036;2023-04-02T04:51:51;21.20;54.10
39695;DHT22;25367;-35.352;149.036;2023-04-02T04:54:26;21.20;54.10
39695;DHT22;25367;-35.352;149.036;2023-04-02T04:57:00;21.30;54.10
39695;DHT22;25367;-35.352;149.036;2023-04-02T04:59:34;21.30;54.00
39695;DHT22;25367;-35.352;149.036;2023-04-02T05:02:09;21.30;54.00
39695;DHT22;25367;-35.352;149.036;2023-04-02T05:04:41;21.30;53.90
39695;DHT22;25367;-35.352;149.036;2023-04-02T05:07:20;21.30;54.00
39695;DHT22;25367;-35.352;149.036;2023-04-02T05:09:56;21.30;53.90
39695;DHT22;25367;-35.352;149.036;2023-04-02T05:12:31;21.30;53.90
39695;DHT22;25367;-35.352;149.036;2023-04-02T05:15:09;21.30;53.90
39695;DHT22;25367;-35.352;149.036;2023-04-02T05:17:47;21.30;53.90
39695;DHT22;25367;-35.352;149.036;2023-04-02T05:20:23;21.30;53.90
39695;DHT22;25367;-35.352;149.036;2023-04-02T05:23:03;21.40;54.00
39695;DHT22;25367;-35.352;149.036;2023-04-02T05:25:34;21.40;53.90
39695;DHT22;25367;-35.352;149.036;2023-04-02T05:28:12;21.40;53.90
39695;DHT22;25367;-35.352;149.036;2023-04-02T05:30:48;21.40;53.80
39695;DHT22;25367;-35.352;149.036;2023-04-02T05:33:24;21.40;53.80
39695;DHT22;25367;-35.352;149.036;2023-04-02T05:35:58;21.40;53.80
39695;DHT22;25367;-35.352;149.036;2023-04-02T06:16:46;20.10;54.30
39695;DHT22;25367;-35.352;149.036;2023-04-02T06:19:16;20.20;55.40
39695;DHT22;25367;-35.352;149.036;2023-04-02T06:21:47;20.30;54.90
39695;DHT22;25367;-35.352;149.036;2023-04-02T06:24:23;20.50;55.20
39695;DHT22;25367;-35.352;149.036;2023-04-02T06:26:58;20.70;54.80
39695;DHT22;25367;-35.352;149.036;2023-04-02T06:29:33;20.90;54.40
39695;DHT22;25367;-35.352;149.036;2023-04-02T06:32:07;21.10;54.10
39695;DHT22;25367;-35.352;149.036;2023-04-02T06:34:41;21.20;53.80
39695;DHT22;25367;-35.352;149.036;2023-04-02T06:37:20;21.40;53.60
39695;DHT22;25367;-35.352;149.036;2023-04-02T06:39:54;21.50;53.50
39695;DHT22;25367;-35.352;149.036;2023-04-02T06:42:27;21.60;53.40
39695;DHT22;25367;-35.352;149.036;2023-04-02T06:45:32;21.70;53.10
39695;DHT22;25367;-35.352;149.036;2023-04-02T06:48:18;21.70;53.00
39695;DHT22;25367;-35.352;149.036;2023-04-02T06:50:56;21.80;52.80
39695;DHT22;25367;-35.352;149.036;2023-04-02T06:53:30;21.90;52.80
39695;DHT22;25367;-35.352;149.036;2023-04-02T06:56:05;22.00;52.60
39695;DHT22;25367;-35.352;149.036;2023-04-02T06:58:38;22.00;52.50
39695;DHT22;25367;-35.352;149.036;2023-04-02T07:01:13;22.10;52.50
39695;DHT22;25367;-35.352;149.036;2023-04-02T07:03:48;22.20;52.30
39695;DHT22;25367;-35.352;149.036;2023-04-02T07:06:26;22.20;52.30
39695;DHT22;25367;-35.352;149.036;2023-04-02T07:08:59;22.20;52.00
39695;DHT22;25367;-35.352;149.036;2023-04-02T07:11:30;22.30;52.10
39695;DHT22;25367;-35.352;149.036;2023-04-02T07:14:01;22.20;52.10
39695;DHT22;25367;-35.352;149.036;2023-04-02T07:16:32;22.20;52.40
39695;DHT22;25367;-35.352;149.036;2023-04-02T07:19:06;22.10;52.50
39695;DHT22;25367;-35.352;149.036;2023-04-02T07:21:38;22.10;52.60
39695;DHT22;25367;-35.352;149.036;2023-04-02T07:24:08;22.00;52.50
39695;DHT22;25367;-35.352;149.036;2023-04-02T07:26:38;22.00;52.60
39695;DHT22;25367;-35.352;149.036;2023-04-02T07:29:08;22.00;52.70
39695;DHT22;25367;-35.352;149.036;2023-04-02T07:31:42;21.90;52.70
39695;DHT22;25367;-35.352;149.036;2023-04-02T07:34:15;21.90;52.80
39695;DHT22;25367;-35.352;149.036;2023-04-02T07:36:45;21.90;52.80
39695;DHT22;25367;-35.352;149.036;2023-04-02T07:39:14;21.90;52.90
39695;DHT22;25367;-35.352;149.036;2023-04-02T07:42:00;21.80;52.90
39695;DHT22;25367;-35.352;149.036;2023-04-02T07:44:30;21.90;52.90
39695;DHT22;25367;-35.352;149.036;2023-04-02T07:47:00;21.90;53.10
39695;DHT22;25367;-35.352;149.036;2023-04-02T07:49:32;22.00;53.00
39695;DHT22;25367;-35.352;149.036;2023-04-02T07:52:02;22.10;52.90
39695;DHT22;25367;-35.352;149.036;2023-04-02T07:54:31;22.10;52.70
39695;DHT22;25367;-35.352;149.036;2023-04-02T07:57:01;22.20;52.60
39695;DHT22;25367;-35.352;149.036;2023-04-02T07:59:30;22.20;52.40
39695;DHT22;25367;-35.352;149.036;2023-04-02T08:02:00;22.30;52.40
39695;DHT22;25367;-35.352;149.036;2023-04-02T08:04:32;22.30;52.20
39695;DHT22;25367;-35.352;149.036;2023-04-02T08:07:02;22.40;52.10
39695;DHT22;25367;-35.352;149.036;2023-04-02T08:09:31;22.50;52.20
39695;DHT22;25367;-35.352;149.036;2023-04-02T08:12:01;22.50;52.10
39695;DHT22;25367;-35.352;149.036;2023-04-02T08:14:30;22.50;52.10
39695;DHT22;25367;-35.352;149.036;2023-04-02T08:17:00;22.50;51.90
39695;DHT22;25367;-35.352;149.036;2023-04-02T08:19:32;22.60;51.90
39695;DHT22;25367;-35.352;149.036;2023-04-02T08:22:02;22.60;51.80
39695;DHT22;25367;-35.352;149.036;2023-04-02T08:24:31;22.60;51.80
39695;DHT22;25367;-35.352;149.036;2023-04-02T08:27:01;22.70;51.90
39695;DHT22;25367;-35.352;149.036;2023-04-02T08:29:30;22.70;52.00
39695;DHT22;25367;-35.352;149.036;2023-04-02T08:32:00;22.70;52.00
39695;DHT22;25367;-35.352;149.036;2023-04-02T08:34:33;22.70;52.00
39695;DHT22;25367;-35.352;149.036;2023-04-02T08:37:03;22.80;52.10
39695;DHT22;25367;-35.352;149.036;2023-04-02T08:39:32;22.70;52.10
39695;DHT22;25367;-35.352;149.036;2023-04-02T08:42:05;22.70;52.00
39695;DHT22;25367;-35.352;149.036;2023-04-02T08:44:44;22.80;52.00
39695;DHT22;25367;-35.352;149.036;2023-04-02T08:47:18;22.80;52.00
39695;DHT22;25367;-35.352;149.036;2023-04-02T08:49:53;22.70;51.90
39695;DHT22;25367;-35.352;149.036;2023-04-02T08:52:24;22.70;51.90
39695;DHT22;25367;-35.352;149.036;2023-04-02T08:54:54;22.70;51.90
39695;DHT22;25367;-35.352;149.036;2023-04-02T08:57:31;22.70;51.90
39695;DHT22;25367;-35.352;149.036;2023-04-02T09:00:09;22.70;52.20
39695;DHT22;25367;-35.352;149.036;2023-04-02T09:02:54;22.70;52.20
39695;DHT22;25367;-35.352;149.036;2023-04-02T09:05:30;22.70;52.40
39695;DHT22;25367;-35.352;149.036;2023-04-02T09:08:02;22.60;52.40
39695;DHT22;25367;-35.352;149.036;2023-04-02T09:10:37;22.60;52.50
39695;DHT22;25367;-35.352;149.036;2023-04-02T09:13:13;22.60;52.50
39695;DHT22;25367;-35.352;149.036;2023-04-02T09:15:45;22.60;52.60
39695;DHT22;25367;-35.352;149.036;2023-04-02T09:18:15;22.60;52.60
39695;DHT22;25367;-35.352;149.036;2023-04-02T09:20:48;22.60;52.60
39695;DHT22;25367;-35.352;149.036;2023-04-02T09:23:18;22.60;52.60
39695;DHT22;25367;-35.352;149.036;2023-04-02T09:25:49;22.50;53.20
39695;DHT22;25367;-35.352;149.036;2023-04-02T09:28:20;22.50;53.20
39695;DHT22;25367;-35.352;149.036;2023-04-02T09:31:03;22.50;52.80
39695;DHT22;25367;-35.352;149.036;2023-04-02T09:33:44;22.50;52.70
39695;DHT22;25367;-35.352;149.036;2023-04-02T09:36:32;22.50;52.70
39695;DHT22;25367;-35.352;149.036;2023-04-02T09:39:03;22.50;52.70
39695;DHT22;25367;-35.352;149.036;2023-04-02T09:41:34;22.40;52.90
39695;DHT22;25367;-35.352;149.036;2023-04-02T09:44:27;22.50;53.00
39695;DHT22;25367;-35.352;149.036;2023-04-02T09:46:58;22.50;52.70
39695;DHT22;25367;-35.352;149.036;2023-04-02T09:49:29;22.40;53.10
39695;DHT22;25367;-35.352;149.036;2023-04-02T09:52:20;22.40;53.20
39695;DHT22;25367;-35.352;149.036;2023-04-02T09:55:19;22.40;52.90
39695;DHT22;25367;-35.352;149.036;2023-04-02T09:57:50;22.40;53.00
39695;DHT22;25367;-35.352;149.036;2023-04-02T10:00:21;22.30;53.20
39695;DHT22;25367;-35.352;149.036;2023-04-02T10:03:05;22.30;53.10
39695;DHT22;25367;-35.352;149.036;2023-04-02T10:05:35;22.30;53.00
39695;DHT22;25367;-35.352;149.036;2023-04-02T10:08:17;22.30;53.20
39695;DHT22;25367;-35.352;149.036;2023-04-02T10:10:49;22.30;53.00
39695;DHT22;25367;-35.352;149.036;2023-04-02T10:13:23;22.30;53.10
39695;DHT22;25367;-35.352;149.036;2023-04-02T10:15:56;22.20;53.10
39695;DHT22;25367;-35.352;149.036;2023-04-02T10:18:37;22.20;53.10
39695;DHT22;25367;-35.352;149.036;2023-04-02T10:21:11;22.30;53.10
39695;DHT22;25367;-35.352;149.036;2023-04-02T10:23:43;22.20;53.10
39695;DHT22;25367;-35.352;149.036;2023-04-02T10:26:35;22.20;53.10
39695;DHT22;25367;-35.352;149.036;2023-04-02T10:29:20;22.20;52.90
39695;DHT22;25367;-35.352;149.036;2023-04-02T10:31:56;22.20;53.10
39695;DHT22;25367;-35.352;149.036;2023-04-02T10:34:36;22.20;53.10
39695;DHT22;25367;-35.352;149.036;2023-04-02T10:40:04;22.20;53.10
39695;DHT22;25367;-35.352;149.036;2023-04-02T10:42:42;22.10;53.10
39695;DHT22;25367;-35.352;149.036;2023-04-02T10:45:23;22.10;53.10
39695;DHT22;25367;-35.352;149.036;2023-04-02T10:48:02;22.10;53.00
39695;DHT22;25367;-35.352;149.036;2023-04-02T10:50:38;22.10;53.10
39695;DHT22;25367;-35.352;149.036;2023-04-02T10:53:15;22.10;53.10
39695;DHT22;25367;-35.352;149.036;2023-04-02T10:55:49;22.10;53.10
39695;DHT22;25367;-35.352;149.036;2023-04-02T10:58:24;22.10;53.10
39695;DHT22;25367;-35.352;149.036;2023-04-02T11:00:54;22.10;53.10
39695;DHT22;25367;-35.352;149.036;2023-04-02T11:03:30;22.00;52.90
39695;DHT22;25367;-35.352;149.036;2023-04-02T11:06:03;22.00;53.30
39695;DHT22;25367;-35.352;149.036;2023-04-02T11:08:39;22.00;53.20
39695;DHT22;25367;-35.352;149.036;2023-04-02T11:11:15;22.00;53.10
39695;DHT22;25367;-35.352;149.036;2023-04-02T11:13:54;22.00;53.10
39695;DHT22;25367;-35.352;149.036;2023-04-02T11:16:26;22.00;53.10
39695;DHT22;25367;-35.352;149.036;2023-04-02T11:19:24;22.00;53.10
39695;DHT22;25367;-35.352;149.036;2023-04-02T11:21:55;22.00;53.00
39695;DHT22;25367;-35.352;149.036;2023-04-02T11:24:36;22.00;53.20
39695;DHT22;25367;-35.352;149.036;2023-04-02T11:27:25;22.00;53.20
39695;DHT22;25367;-35.352;149.036;2023-04-02T11:30:06;21.90;53.10
39695;DHT22;25367;-35.352;149.036;2023-04-02T11:32:45;21.90;53.20
39695;DHT22;25367;-35.352;149.036;2023-04-02T11:35:35;22.00;53.30
39695;DHT22;25367;-35.352;149.036;2023-04-02T11:41:12;22.00;53.10
39695;DHT22;25367;-35.352;149.036;2023-04-02T11:44:02;21.90;53.30
39695;DHT22;25367;-35.352;149.036;2023-04-02T11:46:43;21.90;53.10
39695;DHT22;25367;-35.352;149.036;2023-04-02T11:49:37;21.90;53.30
39695;DHT22;25367;-35.352;149.036;2023-04-02T11:52:21;21.90;53.10
39695;DHT22;25367;-35.352;149.036;2023-04-02T11:55:03;21.90;53.20
39695;DHT22;25367;-35.352;149.036;2023-04-02T11:57:50;21.90;53.30
39695;DHT22;25367;-35.352;149.036;2023-04-02T12:00:40;21.90;53.30
39695;DHT22;25367;-35.352;149.036;2023-04-02T12:03:28;21.90;53.30
39695;DHT22;25367;-35.352;149.036;2023-04-02T12:06:04;21.80;53.40
39695;DHT22;25367;-35.352;149.036;2023-04-02T12:08:42;21.80;53.50
39695;DHT22;25367;-35.352;149.036;2023-04-02T12:11:16;21.80;53.40
39695;DHT22;25367;-35.352;149.036;2023-04-02T12:13:54;21.80;53.50
39695;DHT22;25367;-35.352;149.036;2023-04-02T12:16:25;21.80;53.50
39695;DHT22;25367;-35.352;149.036;2023-04-02T12:18:55;21.80;53.60
39695;DHT22;25367;-35.352;149.036;2023-04-02T12:21:28;21.80;53.70
39695;DHT22;25367;-35.352;149.036;2023-04-02T12:23:58;21.80;53.80
39695;DHT22;25367;-35.352;149.036;2023-04-02T12:26:30;21.80;53.80
39695;DHT22;25367;-35.352;149.036;2023-04-02T12:29:22;21.80;53.90
39695;DHT22;25367;-35.352;149.036;2023-04-02T12:31:56;21.80;53.70
39695;DHT22;25367;-35.352;149.036;2023-04-02T12:34:27;21.80;54.00
39695;DHT22;25367;-35.352;149.036;2023-04-02T12:36:59;21.80;54.20
39695;DHT22;25367;-35.352;149.036;2023-04-02T12:39:29;21.80;54.20
39695;DHT22;25367;-35.352;149.036;2023-04-02T12:41:59;21.80;54.30
39695;DHT22;25367;-35.352;149.036;2023-04-02T12:44:30;21.80;54.20
39695;DHT22;25367;-35.352;149.036;2023-04-02T12:47:04;21.80;54.30
39695;DHT22;25367;-35.352;149.036;2023-04-02T12:49:38;21.80;54.40
39695;DHT22;25367;-35.352;149.036;2023-04-02T12:52:10;21.80;54.30
39695;DHT22;25367;-35.352;149.036;2023-04-02T12:54:44;21.80;54.30
39695;DHT22;25367;-35.352;149.036;2023-04-02T12:57:32;21.80;54.30
39695;DHT22;25367;-35.352;149.036;2023-04-02T13:03:00;21.80;54.40
39695;DHT22;25367;-35.352;149.036;2023-04-02T13:05:35;21.80;54.30
39695;DHT22;25367;-35.352;149.036;2023-04-02T13:08:12;21.90;54.40
39695;DHT22;25367;-35.352;149.036;2023-04-02T13:10:43;21.80;54.40
39695;DHT22;25367;-35.352;149.036;2023-04-02T13:13:16;21.80;54.40
39695;DHT22;25367;-35.352;149.036;2023-04-02T13:16:02;21.90;54.40
39695;DHT22;25367;-35.352;149.036;2023-04-02T13:18:36;21.80;54.20
39695;DHT22;25367;-35.352;149.036;2023-04-02T13:21:06;21.80;54.30
39695;DHT22;25367;-35.352;149.036;2023-04-02T13:23:51;21.80;54.30
39695;DHT22;25367;-35.352;149.036;2023-04-02T13:26:22;21.80;54.30
39695;DHT22;25367;-35.352;149.036;2023-04-02T13:29:00;21.90;54.30
39695;DHT22;25367;-35.352;149.036;2023-04-02T13:31:30;21.90;54.20
39695;DHT22;25367;-35.352;149.036;2023-04-02T13:34:03;21.80;54.20
39695;DHT22;25367;-35.352;149.036;2023-04-02T13:36:32;21.80;54.10
39695;DHT22;25367;-35.352;149.036;2023-04-02T13:39:02;21.80;54.20
39695;DHT22;25367;-35.352;149.036;2023-04-02T13:41:32;21.80;54.10
39695;DHT22;25367;-35.352;149.036;2023-04-02T13:44:03;21.80;54.70
39695;DHT22;25367;-35.352;149.036;2023-04-02T13:46:34;21.80;54.10
39695;DHT22;25367;-35.352;149.036;2023-04-02T13:49:10;21.80;54.10
39695;DHT22;25367;-35.352;149.036;2023-04-02T13:51:42;21.80;54.00
39695;DHT22;25367;-35.352;149.036;2023-04-02T13:54:18;21.80;54.10
39695;DHT22;25367;-35.352;149.036;2023-04-02T13:56:49;21.90;54.10
39695;DHT22;25367;-35.352;149.036;2023-04-02T13:59:19;21.80;54.10
39695;DHT22;25367;-35.352;149.036;2023-04-02T14:01:49;21.80;54.00
39695;DHT22;25367;-35.352;149.036;2023-04-02T14:04:27;21.80;54.00
39695;DHT22;25367;-35.352;149.036;2023-04-02T14:07:24;21.80;53.90
39695;DHT22;25367;-35.352;149.036;2023-04-02T14:10:05;21.80;53.80
39695;DHT22;25367;-35.352;149.036;2023-04-02T14:12:49;21.80;54.00
39695;DHT22;25367;-35.352;149.036;2023-04-02T14:15:30;21.80;54.00
39695;DHT22;25367;-35.352;149.036;2023-04-02T14:18:25;21.80;54.00
39695;DHT22;25367;-35.352;149.036;2023-04-02T14:21:08;21.80;53.90
39695;DHT22;25367;-35.352;149.036;2023-04-02T14:23:53;21.80;54.10
39695;DHT22;25367;-35.352;149.036;2023-04-02T14:26:30;21.80;54.00
39695;DHT22;25367;-35.352;149.036;2023-04-02T14:29:06;21.70;54.00
39695;DHT22;25367;-35.352;149.036;2023-04-02T14:31:42;21.80;54.10
39695;DHT22;25367;-35.352;149.036;2023-04-02T14:34:18;21.80;54.10
39695;DHT22;25367;-35.352;149.036;2023-04-02T14:36:59;21.80;54.00
39695;DHT22;25367;-35.352;149.036;2023-04-02T14:39:38;21.80;54.00
39695;DHT22;25367;-35.352;149.036;2023-04-02T14:42:13;21.70;54.00
39695;DHT22;25367;-35.352;149.036;2023-04-02T14:44:47;21.80;54.10
39695;DHT22;25367;-35.352;149.036;2023-04-02T14:47:22;21.70;54.00
39695;DHT22;25367;-35.352;149.036;2023-04-02T14:49:55;21.80;54.10
39695;DHT22;25367;-35.352;149.036;2023-04-02T14:52:32;21.80;54.10
39695;DHT22;25367;-35.352;149.036;2023-04-02T14:55:04;21.80;54.10
39695;DHT22;25367;-35.352;149.036;2023-04-02T14:57:37;21.70;54.10
39695;DHT22;25367;-35.352;149.036;2023-04-02T15:00:15;21.70;54.10
39695;DHT22;25367;-35.352;149.036;2023-04-02T15:02:53;21.70;54.10
39695;DHT22;25367;-35.352;149.036;2023-04-02T15:05:28;21.70;54.10
39695;DHT22;25367;-35.352;149.036;2023-04-02T15:08:06;21.70;54.20
39695;DHT22;25367;-35.352;149.036;2023-04-02T15:10:47;21.70;54.20
39695;DHT22;25367;-35.352;149.036;2023-04-02T15:13:24;21.70;54.20
39695;DHT22;25367;-35.352;149.036;2023-04-02T15:15:58;21.60;54.20
39695;DHT22;25367;-35.352;149.036;2023-04-02T15:18:31;21.60;54.20
39695;DHT22;25367;-35.352;149.036;2023-04-02T15:21:07;21.70;54.30
39695;DHT22;25367;-35.352;149.036;2023-04-02T15:23:55;21.70;54.30
39695;DHT22;25367;-35.352;149.036;2023-04-02T15:26:30;21.70;54.10
39695;DHT22;25367;-35.352;149.036;2023-04-02T15:29:09;21.60;54.30
39695;DHT22;25367;-35.352;149.036;2023-04-02T15:31:43;21.60;54.30
39695;DHT22;25367;-35.352;149.036;2023-04-02T15:34:22;21.60;54.30
39695;DHT22;25367;-35.352;149.036;2023-04-02T15:37:12;21.60;54.20
39695;DHT22;25367;-35.352;149.036;2023-04-02T15:42:55;21.60;54.10
39695;DHT22;25367;-35.352;149.036;2023-04-02T15:48:46;21.60;54.10
39695;DHT22;25367;-35.352;149.036;2023-04-02T15:51:31;21.50;54.30
39695;DHT22;25367;-35.352;149.036;2023-04-02T15:54:10;21.50;54.30
39695;DHT22;25367;-35.352;149.036;2023-04-02T15:56:49;21.50;54.40
39695;DHT22;25367;-35.352;149.036;2023-04-02T15:59:51;21.50;54.30
39695;DHT22;25367;-35.352;149.036;2023-04-02T16:02:48;21.50;54.20
39695;DHT22;25367;-35.352;149.036;2023-04-02T16:05:22;21.50;54.30
39695;DHT22;25367;-35.352;149.036;2023-04-02T16:08:08;21.50;54.60
39695;DHT22;25367;-35.352;149.036;2023-04-02T16:10:42;21.50;54.40
39695;DHT22;25367;-35.352;149.036;2023-04-02T16:13:18;21.50;54.60
39695;DHT22;25367;-35.352;149.036;2023-04-02T16:16:02;21.50;54.40
39695;DHT22;25367;-35.352;149.036;2023-04-02T16:18:43;21.50;54.40
39695;DHT22;25367;-35.352;149.036;2023-04-02T16:21:19;21.50;54.50
39695;DHT22;25367;-35.352;149.036;2023-04-02T16:23:50;21.50;54.60
39695;DHT22;25367;-35.352;149.036;2023-04-02T16:26:44;21.40;54.60
39695;DHT22;25367;-35.352;149.036;2023-04-02T16:29:39;21.40;54.20
39695;DHT22;25367;-35.352;149.036;2023-04-02T16:32:26;21.40;54.30
39695;DHT22;25367;-35.352;149.036;2023-04-02T16:35:03;21.40;54.50
39695;DHT22;25367;-35.352;149.036;2023-04-02T16:37:46;21.40;54.60